createdAt,value
2017-05-25T00:00:45.466Z,2.03
2017-05-25T00:03:13.271Z,2.87
2017-05-25T00:05:40.782Z,2.23
2017-05-25T00:08:08.410Z,2.80
2017-05-25T00:10:35.903Z,3.20
2017-05-25T00:13:04.171Z,2.73
2017-05-25T00:15:32.042Z,3.65
2017-05-25T00:17:59.559Z,3.50
2017-05-25T00:20:27.083Z,3.05
2017-05-25T00:22:55.572Z,3.12
2017-05-25T00:25:23.126Z,2.92
2017-05-25T00:27:50.667Z,3.35
2017-05-25T00:30:18.232Z,3.20
2017-05-25T00:32:46.495Z,4.27
2017-05-25T00:35:13.989Z,3.37
2017-05-25T00:37:41.556Z,3.48
2017-05-25T00:40:10.112Z,4.42
2017-05-25T00:42:37.620Z,3.98
2017-05-25T00:45:05.172Z,3.30
2017-05-25T00:47:33.455Z,3.92
2017-05-25T00:50:01.027Z,4.18
2017-05-25T00:52:28.561Z,4.55
2017-05-25T00:54:56.868Z,4.38
2017-05-25T00:57:24.363Z,4.75
2017-05-25T00:59:52.114Z,5.25
2017-05-25T01:02:20.395Z,4.73
2017-05-25T01:04:48.704Z,4.75
2017-05-25T01:07:16.215Z,5.90
2017-05-25T01:09:43.761Z,6.22
2017-05-25T01:12:11.295Z,6.87
2017-05-25T01:14:39.628Z,5.22
2017-05-25T01:17:07.368Z,5.80
2017-05-25T01:19:34.906Z,6.27
2017-05-25T01:22:02.471Z,5.83
2017-05-25T01:24:30.745Z,7.28
2017-05-25T01:26:58.520Z,7.27
2017-05-25T01:29:26.016Z,7.05
2017-05-25T01:31:53.535Z,6.72
2017-05-25T01:34:21.028Z,6.70
2017-05-25T01:36:49.568Z,7.38
2017-05-25T01:39:17.081Z,7.47
2017-05-25T01:41:44.571Z,6.58
2017-05-25T01:44:12.091Z,6.05
2017-05-25T01:46:40.451Z,7.05
2017-05-25T01:49:08.279Z,7.77
2017-05-25T01:51:36.540Z,6.67
2017-05-25T01:54:04.067Z,8.47
2017-05-25T01:56:31.629Z,7.60
2017-05-25T01:58:59.176Z,8.82
2017-05-25T02:01:27.451Z,9.72
2017-05-25T02:03:55.767Z,8.10
2017-05-25T02:06:24.056Z,7.10
2017-05-25T02:08:51.912Z,7.30
2017-05-25T02:11:19.407Z,6.20
2017-05-25T02:13:46.925Z,8.52
2017-05-25T02:16:15.243Z,8.10
2017-05-25T02:18:43.524Z,8.95
2017-05-25T02:21:11.023Z,8.48
2017-05-25T02:23:38.525Z,8.77
2017-05-25T02:26:06.060Z,7.65
2017-05-25T02:28:33.555Z,7.83
2017-05-25T02:31:01.137Z,8.95
2017-05-25T02:33:29.655Z,8.70
2017-05-25T02:35:57.182Z,7.90
2017-05-25T02:38:25.520Z,8.85
2017-05-25T02:40:53.121Z,8.05
2017-05-25T02:43:20.687Z,8.67
2017-05-25T02:45:48.451Z,9.28
2017-05-25T02:48:16.756Z,9.07
2017-05-25T02:50:45.052Z,9.90
2017-05-25T02:53:12.552Z,10.83
2017-05-25T02:55:40.129Z,12.20
2017-05-25T02:58:07.684Z,10.90
2017-05-25T03:00:35.199Z,8.25
2017-05-25T03:03:03.459Z,10.20
2017-05-25T03:05:31.795Z,9.92
2017-05-25T03:07:59.317Z,9.55
2017-05-25T03:10:26.813Z,9.48
2017-05-25T03:12:55.097Z,9.10
2017-05-25T03:15:22.592Z,8.30
2017-05-25T03:17:50.114Z,9.47
2017-05-25T03:20:18.424Z,8.10
2017-05-25T03:22:45.989Z,8.32
2017-05-25T03:25:14.249Z,8.48
2017-05-25T03:27:42.557Z,7.98
2017-05-25T03:30:10.131Z,8.58
2017-05-25T03:32:37.627Z,8.88
2017-05-25T03:35:05.973Z,9.27
2017-05-25T03:37:34.255Z,9.20
2017-05-25T03:40:01.790Z,12.52
2017-05-25T03:42:30.053Z,9.65
2017-05-25T03:44:57.555Z,9.13
2017-05-25T03:47:25.376Z,8.55
2017-05-25T03:49:53.643Z,8.38
2017-05-25T03:52:21.186Z,8.40
2017-05-25T03:54:48.683Z,8.18
2017-05-25T03:57:17.272Z,7.48
2017-05-25T03:59:45.107Z,9.02
2017-05-25T04:02:13.370Z,7.98
2017-05-25T04:04:40.889Z,8.32
2017-05-25T04:07:08.423Z,6.52
2017-05-25T04:09:36.023Z,7.12
2017-05-25T04:12:03.523Z,7.07
2017-05-25T04:14:31.379Z,6.67
2017-05-25T04:16:58.913Z,6.63
2017-05-25T04:19:27.412Z,6.63
2017-05-25T04:21:55.696Z,7.00
2017-05-25T04:24:23.252Z,6.53
2017-05-25T04:26:51.828Z,5.78
2017-05-25T04:29:19.321Z,6.13
2017-05-25T04:31:46.885Z,6.95
2017-05-25T04:34:14.388Z,6.87
2017-05-25T04:36:41.903Z,6.10
2017-05-25T04:39:09.420Z,6.02
2017-05-25T04:41:37.683Z,7.05
2017-05-25T04:44:05.552Z,8.22
2017-05-25T04:46:33.808Z,8.02
2017-05-25T04:49:01.332Z,6.68
2017-05-25T04:51:28.887Z,7.15
2017-05-25T04:53:56.383Z,6.90
2017-05-25T04:56:23.916Z,6.38
2017-05-25T04:58:51.416Z,6.33
2017-05-25T05:01:18.973Z,7.33
2017-05-25T05:03:46.536Z,6.60
2017-05-25T05:06:14.388Z,7.22
2017-05-25T05:08:42.653Z,7.47
2017-05-25T05:11:10.160Z,7.87
2017-05-25T05:13:37.731Z,6.65
2017-05-25T05:16:06.041Z,5.67
2017-05-25T05:18:33.856Z,5.30
2017-05-25T05:21:02.396Z,6.23
2017-05-25T05:23:30.732Z,6.55
2017-05-25T05:25:58.255Z,6.18
2017-05-25T05:28:26.527Z,6.17
2017-05-25T05:30:54.808Z,6.08
2017-05-25T05:33:22.308Z,5.87
2017-05-25T05:35:49.831Z,6.25
2017-05-25T05:38:18.097Z,6.00
2017-05-25T05:40:45.648Z,6.35
2017-05-25T05:43:13.144Z,6.23
2017-05-25T05:45:41.452Z,6.33
2017-05-25T05:48:08.972Z,8.33
2017-05-25T05:50:37.236Z,7.15
2017-05-25T05:53:04.756Z,7.00
2017-05-25T05:55:33.020Z,6.70
2017-05-25T05:58:00.616Z,6.00
2017-05-25T06:00:28.884Z,6.95
2017-05-25T06:02:57.158Z,6.53
2017-05-25T06:05:24.772Z,5.98
2017-05-25T06:07:52.572Z,6.12
2017-05-25T06:10:20.872Z,5.90
2017-05-25T06:12:48.372Z,6.57
2017-05-25T06:15:16.711Z,7.17
2017-05-25T06:17:44.640Z,6.45
2017-05-25T06:20:12.215Z,7.00
2017-05-25T06:22:40.500Z,7.17
2017-05-25T06:25:08.805Z,6.53
2017-05-25T06:27:37.132Z,7.18
2017-05-25T06:30:04.658Z,6.62
2017-05-25T06:32:32.230Z,6.00
2017-05-25T06:35:00.492Z,6.60
2017-05-25T06:37:28.027Z,6.77
2017-05-25T06:39:55.628Z,6.60
2017-05-25T06:42:24.004Z,6.55
2017-05-25T06:44:52.320Z,7.63
2017-05-25T06:47:20.592Z,6.85
2017-05-25T06:49:48.385Z,6.67
2017-05-25T06:52:16.070Z,7.57
2017-05-25T06:54:44.341Z,7.00
2017-05-25T06:57:11.889Z,8.27
2017-05-25T06:59:40.285Z,6.92
2017-05-25T07:02:07.832Z,7.23
2017-05-25T07:04:35.335Z,7.72
2017-05-25T07:07:02.911Z,8.27
2017-05-25T07:09:30.424Z,6.35
2017-05-25T07:11:58.731Z,6.83
2017-05-25T07:14:26.474Z,9.82
2017-05-25T07:16:54.066Z,9.55
2017-05-25T07:19:22.398Z,8.50
2017-05-25T07:21:49.944Z,9.22
2017-05-25T07:24:17.512Z,9.40
2017-05-25T07:26:46.047Z,8.63
2017-05-25T07:29:13.736Z,10.42
2017-05-25T07:31:41.355Z,9.53
2017-05-25T07:34:08.897Z,10.03
2017-05-25T07:36:36.816Z,9.37
2017-05-25T07:39:05.401Z,9.02
2017-05-25T07:41:32.984Z,8.95
2017-05-25T07:44:01.319Z,8.52
2017-05-25T07:46:29.179Z,8.42
2017-05-25T07:48:57.506Z,9.57
2017-05-25T07:51:25.044Z,10.60
2017-05-25T07:53:52.564Z,9.70
2017-05-25T07:56:20.088Z,10.62
2017-05-25T07:58:48.711Z,10.13
2017-05-25T08:01:16.279Z,9.53
2017-05-25T08:03:43.801Z,8.15
2017-05-25T08:06:11.404Z,8.12
2017-05-25T08:08:39.735Z,8.53
2017-05-25T08:11:07.724Z,8.80
2017-05-25T08:13:35.622Z,8.32
2017-05-25T08:16:03.489Z,7.27
2017-05-25T08:18:31.012Z,7.43
2017-05-25T08:20:58.516Z,7.63
2017-05-25T08:23:26.833Z,6.43
2017-05-25T08:25:54.336Z,7.52
2017-05-25T08:28:21.889Z,7.13
2017-05-25T08:30:50.173Z,6.55
2017-05-25T08:33:18.753Z,6.23
2017-05-25T08:35:47.048Z,5.28
2017-05-25T08:38:15.776Z,5.13
2017-05-25T08:40:43.337Z,4.88
2017-05-25T08:43:11.628Z,5.45
2017-05-25T08:45:39.133Z,4.98
2017-05-25T08:48:06.929Z,7.02
2017-05-25T08:50:34.459Z,5.58
2017-05-25T08:53:04.055Z,7.08
2017-05-25T08:55:31.955Z,6.68
2017-05-25T08:57:59.740Z,6.18
2017-05-25T09:00:27.332Z,6.50
2017-05-25T09:02:55.048Z,6.65
2017-05-25T09:05:22.572Z,7.17
2017-05-25T09:07:50.103Z,6.93
2017-05-25T09:10:20.785Z,6.43
2017-05-25T09:12:48.545Z,7.75
2017-05-25T09:15:16.342Z,6.78
2017-05-25T09:17:43.846Z,8.55
2017-05-25T09:20:12.187Z,8.23
2017-05-25T09:22:40.003Z,10.68
2017-05-25T09:25:08.267Z,8.45
2017-05-25T09:27:35.862Z,7.12
2017-05-25T09:30:04.424Z,9.58
2017-05-25T09:32:32.074Z,7.38
2017-05-25T09:35:00.370Z,9.67
2017-05-25T09:37:28.974Z,9.88
2017-05-25T09:39:57.284Z,9.35
2017-05-25T09:42:24.813Z,9.10
2017-05-25T09:44:53.348Z,10.28
2017-05-25T09:47:21.667Z,10.43
2017-05-25T09:49:50.020Z,9.93
2017-05-25T09:52:17.536Z,10.32
2017-05-25T09:54:46.138Z,8.98
2017-05-25T09:57:14.484Z,10.25
2017-05-25T09:59:41.995Z,10.33
2017-05-25T10:02:09.559Z,9.68
2017-05-25T10:04:37.106Z,9.72
2017-05-25T10:07:05.422Z,9.18
2017-05-25T10:09:32.969Z,9.88
2017-05-25T10:12:01.248Z,10.17
2017-05-25T10:14:28.788Z,9.23
2017-05-25T10:16:56.288Z,8.62
2017-05-25T10:19:24.584Z,8.78
2017-05-25T10:21:52.445Z,8.35
2017-05-25T10:24:20.754Z,7.35
2017-05-25T10:26:48.315Z,8.20
2017-05-25T10:29:16.175Z,4.60
2017-05-25T10:31:44.462Z,5.92
2017-05-25T10:34:12.748Z,5.65
2017-05-25T10:36:40.300Z,6.12
2017-05-25T10:39:07.834Z,5.92
2017-05-25T10:41:36.151Z,5.65
2017-05-25T10:44:03.943Z,6.47
2017-05-25T10:46:31.448Z,6.62
2017-05-25T10:48:58.997Z,5.78
2017-05-25T10:51:27.271Z,5.57
2017-05-25T10:53:55.595Z,5.48
2017-05-25T10:56:23.119Z,4.60
2017-05-25T10:58:50.738Z,4.62
2017-05-25T11:01:19.008Z,5.50
2017-05-25T11:03:47.282Z,4.40
2017-05-25T11:06:15.571Z,4.90
2017-05-25T11:08:43.068Z,6.33
2017-05-25T11:11:11.433Z,6.62
2017-05-25T11:13:39.703Z,6.70
2017-05-25T11:16:08.336Z,6.63
2017-05-25T11:18:37.016Z,5.47
2017-05-25T11:21:05.339Z,4.63
2017-05-25T11:23:32.855Z,3.82
2017-05-25T11:26:01.127Z,3.92
2017-05-25T11:28:28.684Z,5.05
2017-05-25T11:30:56.948Z,4.67
2017-05-25T11:33:25.236Z,5.58
2017-05-25T11:35:53.501Z,5.60
2017-05-25T11:38:21.815Z,4.95
2017-05-25T11:40:49.379Z,7.58
2017-05-25T11:43:17.687Z,5.95
2017-05-25T11:45:45.976Z,6.05
2017-05-25T11:48:13.769Z,6.25
2017-05-25T11:50:41.383Z,5.50
2017-05-25T11:53:08.883Z,5.18
2017-05-25T11:55:36.377Z,6.10
2017-05-25T11:58:04.664Z,4.50
2017-05-25T12:00:33.536Z,5.02
2017-05-25T12:03:01.096Z,6.03
2017-05-25T12:05:29.361Z,6.22
2017-05-25T12:07:56.906Z,5.67
2017-05-25T12:10:24.407Z,5.30
2017-05-25T12:12:51.919Z,5.17
2017-05-25T12:15:19.439Z,5.03
2017-05-25T12:17:46.979Z,5.15
2017-05-25T12:20:14.535Z,6.48
2017-05-25T12:22:42.094Z,6.42
2017-05-25T12:25:10.459Z,6.35
2017-05-25T12:27:37.964Z,6.20
2017-05-25T12:30:05.534Z,4.78
2017-05-25T12:32:33.395Z,4.25
2017-05-25T12:35:01.743Z,4.13
2017-05-25T12:37:29.280Z,4.10
2017-05-25T12:39:57.596Z,3.85
2017-05-25T12:42:25.884Z,3.77
2017-05-25T12:44:54.184Z,3.90
2017-05-25T12:47:22.061Z,4.18
2017-05-25T12:49:49.859Z,4.50
2017-05-25T12:52:17.360Z,4.57
2017-05-25T12:54:44.932Z,4.03
2017-05-25T12:57:13.240Z,3.38
2017-05-25T12:59:41.853Z,3.38
2017-05-25T13:02:10.525Z,3.15
2017-05-25T13:04:38.794Z,3.32
2017-05-25T13:07:06.315Z,2.68
2017-05-25T13:09:34.050Z,2.30
2017-05-25T13:12:01.597Z,2.77
2017-05-25T13:14:29.911Z,2.15
2017-05-25T13:16:57.440Z,2.52
2017-05-25T13:19:25.081Z,2.70
2017-05-25T13:21:52.588Z,2.65
2017-05-25T13:24:21.191Z,3.05
2017-05-25T13:26:48.688Z,3.47
2017-05-25T13:29:16.245Z,3.02
2017-05-25T13:31:44.512Z,3.98
2017-05-25T13:34:12.065Z,4.70
2017-05-25T13:36:39.581Z,4.08
2017-05-25T13:39:07.849Z,3.98
2017-05-25T13:41:36.482Z,4.02
2017-05-25T13:44:04.799Z,4.22
2017-05-25T13:46:33.080Z,3.62
2017-05-25T13:49:00.580Z,3.23
2017-05-25T13:51:28.140Z,3.87
2017-05-25T13:53:56.412Z,3.17
2017-05-25T13:56:24.775Z,3.45
2017-05-25T13:58:52.333Z,3.90
2017-05-25T14:01:20.908Z,3.53
2017-05-25T14:03:49.189Z,3.48
2017-05-25T14:06:17.456Z,3.88
2017-05-25T14:08:46.037Z,4.13
2017-05-25T14:11:13.579Z,3.42
2017-05-25T14:13:41.080Z,3.45
2017-05-25T14:16:08.914Z,3.25
2017-05-25T14:18:36.675Z,3.18
2017-05-25T14:21:04.227Z,3.35
2017-05-25T14:23:31.759Z,3.57
2017-05-25T14:26:00.069Z,3.65
2017-05-25T14:28:28.383Z,3.77
2017-05-25T14:30:55.927Z,4.02
2017-05-25T14:33:24.299Z,3.22
2017-05-25T14:35:52.872Z,3.65
2017-05-25T14:38:20.559Z,2.92
2017-05-25T14:40:48.878Z,2.88
2017-05-25T14:43:17.188Z,2.35
2017-05-25T14:45:44.736Z,3.20
2017-05-25T14:48:12.243Z,2.93
2017-05-25T14:50:40.576Z,3.25
2017-05-25T14:53:08.072Z,3.83
2017-05-25T14:55:36.382Z,3.98
2017-05-25T14:58:03.939Z,4.30
2017-05-25T15:00:31.660Z,4.43
2017-05-25T15:02:59.228Z,4.03
2017-05-25T15:05:26.727Z,4.37
2017-05-25T15:07:55.101Z,4.03
2017-05-25T15:10:22.609Z,4.23
2017-05-25T15:12:50.112Z,3.52
2017-05-25T15:15:18.616Z,4.23
2017-05-25T15:17:46.772Z,5.38
2017-05-25T15:20:14.417Z,4.83
2017-05-25T15:22:41.972Z,3.67
2017-05-25T15:25:09.532Z,5.93
2017-05-25T15:27:37.304Z,5.63
2017-05-25T15:30:04.823Z,4.13
2017-05-25T15:32:32.357Z,4.97
2017-05-25T15:34:59.953Z,4.73
2017-05-25T15:37:28.268Z,5.05
2017-05-25T15:39:56.733Z,4.18
2017-05-25T15:42:24.315Z,4.90
2017-05-25T15:44:51.845Z,4.88
2017-05-25T15:47:20.427Z,4.58
2017-05-25T15:49:48.003Z,5.02
2017-05-25T15:52:16.263Z,4.53
2017-05-25T15:54:45.001Z,5.10
2017-05-25T15:57:13.275Z,4.25
2017-05-25T15:59:41.621Z,4.45
2017-05-25T16:02:09.962Z,3.90
2017-05-25T16:04:37.491Z,4.30
2017-05-25T16:07:05.832Z,4.18
2017-05-25T16:09:33.360Z,4.42
2017-05-25T16:12:00.917Z,5.75
2017-05-25T16:14:28.416Z,5.15
2017-05-25T16:16:56.051Z,5.02
2017-05-25T16:19:24.353Z,5.05
2017-05-25T16:21:51.847Z,5.12
2017-05-25T16:24:19.723Z,4.20
2017-05-25T16:26:48.023Z,3.80
2017-05-25T16:29:16.367Z,3.57
2017-05-25T16:31:43.901Z,4.03
2017-05-25T16:34:12.408Z,3.35
2017-05-25T16:36:40.814Z,4.03
2017-05-25T16:39:09.081Z,3.62
2017-05-25T16:41:37.644Z,3.42
2017-05-25T16:44:05.217Z,3.47
2017-05-25T16:46:33.507Z,3.63
2017-05-25T16:49:01.008Z,3.30
2017-05-25T16:51:28.824Z,3.50
2017-05-25T16:53:56.364Z,3.57
2017-05-25T16:56:23.871Z,3.57
2017-05-25T16:58:52.196Z,2.97
2017-05-25T17:01:20.529Z,4.43
2017-05-25T17:03:48.144Z,4.48
2017-05-25T17:06:15.685Z,5.37
2017-05-25T17:08:43.444Z,4.68
2017-05-25T17:11:10.976Z,5.45
2017-05-25T17:13:38.530Z,4.53
2017-05-25T17:16:06.043Z,4.20
2017-05-25T17:18:34.358Z,4.43
2017-05-25T17:21:02.672Z,4.63
2017-05-25T17:23:30.207Z,4.77
2017-05-25T17:25:57.801Z,5.77
2017-05-25T17:28:25.690Z,6.05
2017-05-25T17:30:53.191Z,5.47
2017-05-25T17:33:20.743Z,5.83
2017-05-25T17:35:48.244Z,6.82
2017-05-25T17:38:15.796Z,8.43
2017-05-25T17:40:44.069Z,9.02
2017-05-25T17:43:11.573Z,9.98
2017-05-25T17:45:39.908Z,10.67
2017-05-25T17:48:07.615Z,10.85
2017-05-25T17:50:35.398Z,11.80
2017-05-25T17:53:02.959Z,12.27
2017-05-25T17:55:30.537Z,12.12
2017-05-25T17:57:58.069Z,12.90
2017-05-25T18:00:25.895Z,12.22
2017-05-25T18:02:53.453Z,13.05
2017-05-25T18:05:21.761Z,13.37
2017-05-25T18:07:50.074Z,14.08
2017-05-25T18:10:17.644Z,15.07
2017-05-25T18:12:45.468Z,14.60
2017-05-25T18:15:12.967Z,15.63
2017-05-25T18:17:40.526Z,14.27
2017-05-25T18:20:08.067Z,14.67
2017-05-25T18:22:36.559Z,16.33
2017-05-25T18:25:04.113Z,14.72
2017-05-25T18:27:31.948Z,13.83
2017-05-25T18:30:00.329Z,13.92
2017-05-25T18:32:28.616Z,14.37
2017-05-25T18:34:56.935Z,13.50
2017-05-25T18:37:24.452Z,13.48
2017-05-25T18:39:51.987Z,12.63
2017-05-25T18:42:20.311Z,13.33
2017-05-25T18:44:48.119Z,13.87
2017-05-25T18:47:15.624Z,11.73
2017-05-25T18:49:43.139Z,13.65
2017-05-25T18:52:10.644Z,13.32
2017-05-25T18:54:38.235Z,12.47
2017-05-25T18:57:06.508Z,13.08
2017-05-25T18:59:34.025Z,12.88
2017-05-25T19:02:01.956Z,12.52
2017-05-25T19:04:29.573Z,12.63
2017-05-25T19:06:58.023Z,13.30
2017-05-25T19:09:25.581Z,12.20
2017-05-25T19:11:53.206Z,13.80
2017-05-25T19:14:20.767Z,13.45
2017-05-25T19:16:48.336Z,13.02
2017-05-25T19:19:15.860Z,12.55
2017-05-25T19:21:46.165Z,14.45
2017-05-25T19:24:13.695Z,13.35
2017-05-25T19:26:42.120Z,13.20
2017-05-25T19:29:09.690Z,12.68
2017-05-25T19:31:37.247Z,12.80
2017-05-25T19:34:04.763Z,12.77
2017-05-25T19:36:33.379Z,11.88
2017-05-25T19:39:00.880Z,11.32
2017-05-25T19:41:28.491Z,12.07
2017-05-25T19:43:56.260Z,12.15
2017-05-25T19:46:24.725Z,10.57
2017-05-25T19:48:54.185Z,10.80
2017-05-25T19:51:21.980Z,11.50
2017-05-25T19:53:50.267Z,12.62
2017-05-25T19:56:17.820Z,11.78
2017-05-25T19:58:45.699Z,12.05
2017-05-25T20:01:13.231Z,12.93
2017-05-25T20:03:41.124Z,12.70
2017-05-25T20:06:08.663Z,11.57
2017-05-25T20:08:36.989Z,12.83
2017-05-25T20:11:04.816Z,11.90
2017-05-25T20:13:33.087Z,12.88
2017-05-25T20:16:00.637Z,13.37
2017-05-25T20:18:28.512Z,11.37
2017-05-25T20:20:56.064Z,12.62
2017-05-25T20:23:23.595Z,13.05
2017-05-25T20:25:51.392Z,13.47
2017-05-25T20:28:19.675Z,13.72
2017-05-25T20:30:47.991Z,13.70
2017-05-25T20:33:15.513Z,14.00
2017-05-25T20:35:44.080Z,14.08
2017-05-25T20:38:11.639Z,12.93
2017-05-25T20:40:39.961Z,12.48
2017-05-25T20:43:08.228Z,13.22
2017-05-25T20:45:36.560Z,13.32
2017-05-25T20:48:04.064Z,14.13
2017-05-25T20:50:31.670Z,13.37
2017-05-25T20:52:59.940Z,13.37
2017-05-25T20:55:27.538Z,13.85
2017-05-25T20:57:55.173Z,14.07
2017-05-25T21:00:23.469Z,13.13
2017-05-25T21:02:51.035Z,14.67
2017-05-25T21:05:18.605Z,13.82
2017-05-25T21:07:46.186Z,13.57
2017-05-25T21:10:13.692Z,13.47
2017-05-25T21:12:41.975Z,14.07
2017-05-25T21:15:09.482Z,14.12
2017-05-25T21:17:37.796Z,14.42
2017-05-25T21:20:05.540Z,15.40
2017-05-25T21:22:33.341Z,15.07
2017-05-25T21:25:00.864Z,15.08
2017-05-25T21:27:29.133Z,16.17
2017-05-25T21:29:57.782Z,15.33
2017-05-25T21:32:26.092Z,14.93
2017-05-25T21:34:54.363Z,13.60
2017-05-25T21:37:22.627Z,14.30
2017-05-25T21:39:50.892Z,12.65
2017-05-25T21:42:18.447Z,13.78
2017-05-25T21:44:45.944Z,14.55
2017-05-25T21:47:14.227Z,14.60
2017-05-25T21:49:41.730Z,14.20
2017-05-25T21:52:10.103Z,13.62
2017-05-25T21:54:37.914Z,15.52
2017-05-25T21:57:06.542Z,15.40
2017-05-25T21:59:34.109Z,14.75
2017-05-25T22:02:02.455Z,16.70
2017-05-25T22:04:30.836Z,16.50
2017-05-25T22:06:58.452Z,14.20
2017-05-25T22:09:26.780Z,17.63
2017-05-25T22:11:55.043Z,15.98
2017-05-25T22:14:22.618Z,13.37
2017-05-25T22:16:50.158Z,16.37
2017-05-25T22:19:18.424Z,13.07
2017-05-25T22:21:46.261Z,15.12
2017-05-25T22:24:13.870Z,16.22
2017-05-25T22:26:41.624Z,15.30
2017-05-25T22:29:09.447Z,16.40
2017-05-25T22:31:37.727Z,16.58
2017-05-25T22:34:05.258Z,15.67
2017-05-25T22:36:32.817Z,14.57
2017-05-25T22:39:01.152Z,14.17
2017-05-25T22:41:28.660Z,14.30
2017-05-25T22:43:56.963Z,15.23
2017-05-25T22:46:24.511Z,14.73
2017-05-25T22:48:52.063Z,14.85
2017-05-25T22:51:20.383Z,16.08
2017-05-25T22:53:47.888Z,15.33
2017-05-25T22:56:15.456Z,15.57
2017-05-25T22:58:42.998Z,16.32
2017-05-25T23:01:11.579Z,14.67
2017-05-25T23:03:40.164Z,16.95
2017-05-25T23:06:07.794Z,14.33
2017-05-25T23:08:36.108Z,14.23
2017-05-25T23:11:03.615Z,14.78
2017-05-25T23:13:31.947Z,16.43
2017-05-25T23:16:00.282Z,16.42
2017-05-25T23:18:27.833Z,16.15
2017-05-25T23:20:55.336Z,14.92
2017-05-25T23:23:22.919Z,15.57
2017-05-25T23:25:50.427Z,16.47
2017-05-25T23:28:19.024Z,15.52
2017-05-25T23:30:47.600Z,16.70
2017-05-25T23:33:15.103Z,16.70
2017-05-25T23:35:42.742Z,15.42
2017-05-25T23:38:11.011Z,16.40
2017-05-25T23:40:38.584Z,16.78
2017-05-25T23:43:06.086Z,16.07
2017-05-25T23:45:34.355Z,17.18
2017-05-25T23:48:02.113Z,16.38
2017-05-25T23:50:29.619Z,17.05
2017-05-25T23:52:57.920Z,15.45
2017-05-25T23:55:26.184Z,15.33
2017-05-25T23:57:54.507Z,15.15
